Pos.Doss.NomPrenomTempsVit.Moy.Allure Pos. catégCatégorie Points Club
1 190 Lemaire Sacha 00:07:03 14.47 00:04:09 1Garcons moins de 12 ans 1000 CSM Athlétisme
2 400 Bovi Romain 00:07:10 14.23 00:04:13 2Garcons moins de 12 ans 991 RFCL
3 782 Duchesne Thomas 00:07:18 13.97 00:04:18 3Garcons moins de 12 ans 982 RFCL
4 236 Kalin Antoine 00:07:18 13.97 00:04:18 4Garcons moins de 12 ans 973
5 666 Benmir Adam 00:07:48 13.08 00:04:35 5Garcons moins de 12 ans 965 P6B
6 789 Lescrenier Antoine 00:07:49 13.05 00:04:36 6Garcons moins de 12 ans 956 FAFA TEAM
7 801 Theunis Iris 00:07:50 13.02 00:04:36 1Filles moins de 12 ans 947 FCHA
8 83 Lefort Pauline 00:08:07 12.57 00:04:46 2Filles moins de 12 ans 938 amc mehagne
9 712 Herman Romain 00:08:10 12.49 00:04:48 7Garcons moins de 12 ans 929 P6B
10 82 Lefort Louise 00:08:12 12.44 00:04:49 3Filles moins de 12 ans 920 amc mehagne
11 794 Manad Adriane 00:08:17 12.31 00:04:52 4Filles moins de 12 ans 912
12 760 Thielen Raphaël 00:08:20 12.24 00:04:54 8Garcons moins de 12 ans 903 P6B
13 798 Dheedene Ethan 00:08:20 12.24 00:04:54 9Garcons moins de 12 ans 894
14 669 Blume Manon 00:08:23 12.17 00:04:56 5Filles moins de 12 ans 885 P6A
15 787 Eddaqaqi Yassine 00:08:33 11.93 00:05:02 10Garcons moins de 12 ans 876
16 803 Leunoa Chelsea 00:08:38 11.81 00:05:05 6Filles moins de 12 ans 867
17 742 Montanus Quentin 00:08:38 11.81 00:05:05 11Garcons moins de 12 ans 858 P6C
18 726 Leclere Antoine 00:08:52 11.5 00:05:13 12Garcons moins de 12 ans 850 P5D
19 737 Maka Adrien 00:08:54 11.46 00:05:14 13Garcons moins de 12 ans 841 P4D
20 705 Errougui Akram 00:09:05 11.23 00:05:21 14Garcons moins de 12 ans 832 P4C
21 723 Lamy Adrien 00:09:08 11.17 00:05:22 15Garcons moins de 12 ans 823 P5C
22 680 Cardillo Angelo 00:09:08 11.17 00:05:22 16Garcons moins de 12 ans 814 P5D
23 693 Dethioux Alexandre 00:09:12 11.09 00:05:25 17Garcons moins de 12 ans 805 P3A
24 697 Dohogne schair Théo 00:09:16 11.01 00:05:27 18Garcons moins de 12 ans 796 P4B
25 802 Collas Celia 00:09:16 11.01 00:05:27 7Filles moins de 12 ans 788
26 753 Sadin Hugo 00:09:19 10.95 00:05:29 19Garcons moins de 12 ans 779 P5A
27 766 Vilfroy Clement 00:09:22 10.89 00:05:31 20Garcons moins de 12 ans 770 P6A
28 791 Vannaetermeulen Mazzarine 00:09:23 10.87 00:05:31 8Filles moins de 12 ans 761
29 208 Odeurs Lionel 00:09:25 10.83 00:05:32 21Garcons moins de 12 ans 752 LES COREUS D AWANS
30 660 Bajou Amin 00:09:27 10.79 00:05:34 22Garcons moins de 12 ans 743 P3D
31 749 Rentmeister Gaylor 00:09:27 10.79 00:05:34 23Garcons moins de 12 ans 735 P5D
32 30 Rigo Maxime 00:09:28 10.77 00:05:34 24Garcons moins de 12 ans 726
33 696 Dikici Osman 00:09:30 10.74 00:05:35 25Garcons moins de 12 ans 717 P4C
34 765 Vilfroy Loïc 00:09:33 10.68 00:05:37 26Garcons moins de 12 ans 708 P6A
35 793 Mahran Paul 00:09:35 10.64 00:05:38 27Garcons moins de 12 ans 699
36 695 Di prima Leonardo 00:09:36 10.63 00:05:39 28Garcons moins de 12 ans 690 P3C
37 740 Mazy Loïc 00:09:38 10.59 00:05:40 29Garcons moins de 12 ans 681 P3D
38 671 Borsus Augustin 00:09:43 10.5 00:05:43 30Garcons moins de 12 ans 673 P3D
39 779 Verhasselt Raphael 00:09:49 10.39 00:05:46 31Garcons moins de 12 ans 664 P3C
40 673 Bottecher Rémi 00:09:51 10.36 00:05:48 32Garcons moins de 12 ans 655 P4A
41 672 Borsus Jean 00:09:51 10.36 00:05:48 33Garcons moins de 12 ans 646 P5D
42 744 Mulkers Tom 00:09:51 10.36 00:05:48 34Garcons moins de 12 ans 637 P3D
43 664 Beele Noah 00:09:52 10.34 00:05:48 35Garcons moins de 12 ans 628 P3B
44 698 El abar Lali 00:09:54 10.3 00:05:49 9Filles moins de 12 ans 619 P4C
45 784 Largner Laura 00:09:54 10.3 00:05:49 10Filles moins de 12 ans 611
46 763 Valentinetti Faustine 00:09:59 10.22 00:05:52 11Filles moins de 12 ans 602 P4A
47 656 Antoine Florent 00:09:59 10.22 00:05:52 36Garcons moins de 12 ans 593 P4A
48 764 Vanderhallen Julien 00:10:01 10.18 00:05:54 37Garcons moins de 12 ans 584 P6C
49 658 Baens Emeline 00:10:08 10.07 00:05:58 12Filles moins de 12 ans 575 P3C
50 713 Houssa Elizabeth 00:10:09 10.05 00:05:58 13Filles moins de 12 ans 566 P4C
51 722 Laios Tom 00:10:11 10.02 00:05:59 38Garcons moins de 12 ans 558 P4C
52 709 Frankard Eloïse 00:10:16 9.94 00:06:02 14Filles moins de 12 ans 549 P6C
53 710 Grondal Gabriella 00:10:19 9.89 00:06:04 15Filles moins de 12 ans 540 P3B
54 691 Debefve Elodie 00:10:20 9.87 00:06:05 16Filles moins de 12 ans 531 P6A
55 751 Roos Ruben 00:10:20 9.87 00:06:05 39Garcons moins de 12 ans 522 P4D
56 717 Jelti Yanis 00:10:24 9.81 00:06:07 40Garcons moins de 12 ans 513 P5B
57 768 Walocha Shawn 00:10:24 9.81 00:06:07 41Garcons moins de 12 ans 504 P4B
58 663 Beele Lucas 00:10:26 9.78 00:06:08 42Garcons moins de 12 ans 496 P3A
59 788 Englebert Kelly 00:10:26 9.78 00:06:08 17Filles moins de 12 ans 487
60 725 Leclercq Fanny 00:10:34 9.65 00:06:13 43Garcons moins de 12 ans 478 P5A
61 797 Mercenier Sacha 00:10:40 9.56 00:06:16 44Garcons moins de 12 ans 469
62 762 Tuzani Antonella 00:10:45 9.49 00:06:19 18Filles moins de 12 ans 460 P5C
63 761 Topic Adnan 00:10:48 9.44 00:06:21 45Garcons moins de 12 ans 451 P5B
64 732 Luxen Léo 00:10:49 9.43 00:06:22 46Garcons moins de 12 ans 442 P4C
65 790 Rysenaer Clemence 00:10:49 9.43 00:06:22 19Filles moins de 12 ans 434
66 662 Beckers Céline 00:10:59 9.29 00:06:28 20Filles moins de 12 ans 425 P6C
67 755 Schings Romane 00:11:03 9.23 00:06:30 21Filles moins de 12 ans 416 P5D
68 785 Schibarov Boris 00:11:05 9.2 00:06:31 47Garcons moins de 12 ans 407
69 714 Houters Gabriel 00:11:19 9.01 00:06:39 48Garcons moins de 12 ans 398 P4A
70 730 Leunga leunga Malaïka 00:11:20 9 00:06:40 22Filles moins de 12 ans 389 P4D
71 728 Leroy Timéa 00:11:21 8.99 00:06:41 23Filles moins de 12 ans 381 P3C
72 708 Frankard Margot 00:11:21 8.99 00:06:41 24Filles moins de 12 ans 372 P3D
73 741 Mazy Candice 00:11:22 8.97 00:06:41 25Filles moins de 12 ans 363 P5D
74 781 Duchesne Emma 00:11:22 8.97 00:06:41 26Filles moins de 12 ans 354 RFCL
75 665 Benabid Nisrine 00:11:25 8.93 00:06:43 27Filles moins de 12 ans 345 P5D
76 653 Agovic Belmin 00:11:28 8.9 00:06:45 49Garcons moins de 12 ans 336 P5D
77 783 Duchesne Arnaud 00:11:31 8.86 00:06:46 ? 0
78 804 Englebert Nora 00:11:34 8.82 00:06:48 ? 0
79 657 Bachiri Hiba 00:11:39 8.76 00:06:51 28Filles moins de 12 ans 327 P6B
80 770 Willem Camille 00:11:39 8.76 00:06:51 29Filles moins de 12 ans 319 P6B
81 746 Ouahid Mohammed 00:11:49 8.63 00:06:57 50Garcons moins de 12 ans 310 P3D
82 754 Sauvage Emilie 00:11:51 8.61 00:06:58 30Filles moins de 12 ans 301 P5A
83 759 Teurfs Lise 00:11:53 8.58 00:06:59 31Filles moins de 12 ans 292 P5D
84 685 Cokaiko Lilian 00:11:53 8.58 00:06:59 51Garcons moins de 12 ans 283 P3D
85 668 Berki Kenza 00:11:54 8.57 00:07:00 32Filles moins de 12 ans 274 P5B
86 799 Rhimu Rayan 00:11:54 8.57 00:07:00 52Garcons moins de 12 ans 265
87 729 Leroy Julia 00:11:56 8.55 00:07:01 33Filles moins de 12 ans 257 P5B
88 721 Kountanis Angelina 00:12:01 8.49 00:07:04 34Filles moins de 12 ans 248 P5A
89 661 Beckers Camille 00:12:01 8.49 00:07:04 35Filles moins de 12 ans 239 P3D
90 690 Das Alena 00:12:08 8.41 00:07:08 36Filles moins de 12 ans 230 P3B
91 743 Mordant Noé 00:12:10 8.38 00:07:09 53Garcons moins de 12 ans 221 P3B
92 747 Paraschi Luca 00:12:12 8.36 00:07:11 54Garcons moins de 12 ans 212 P4C
93 701 Elmaci Melda 00:12:15 8.33 00:07:12 37Filles moins de 12 ans 204 P5D
94 724 Laurent Yohan 00:12:18 8.29 00:07:14 55Garcons moins de 12 ans 195 P5C
95 796 Coune Damien 00:12:22 8.25 00:07:16 56Garcons moins de 12 ans 186 P5B
96 792 De palpe Savannah 00:12:34 8.12 00:07:24 38Filles moins de 12 ans 177
97 684 Cokaiko Jade 00:12:37 8.08 00:07:25 39Filles moins de 12 ans 168 P4C
98 681 Chakouath Imane 00:12:41 8.04 00:07:28 40Filles moins de 12 ans 159 P3A
99 778 Soetens Angel 00:12:50 7.95 00:07:33 57Garcons moins de 12 ans 150 P6D
100 767 Walocha Shyrel 00:12:55 7.9 00:07:36 41Filles moins de 12 ans 142 P6B
101 716 Hubert mouvet Alicia 00:13:13 7.72 00:07:46 42Filles moins de 12 ans 133 P6A
102 775 Pirson Erin 00:13:37 7.49 00:08:01 43Filles moins de 12 ans 124 P5A
103 739 Mayeres Eva-marie 00:13:38 7.48 00:08:01 44Filles moins de 12 ans 115 P5D
104 748 Pichon Brittany 00:13:45 7.42 00:08:05 45Filles moins de 12 ans 106 P5B
105 769 Wery Maelyne 00:13:46 7.41 00:08:06 46Filles moins de 12 ans 97 P4A
106 745 Neujean Marie 00:13:48 7.39 00:08:07 47Filles moins de 12 ans 88 P4A
107 706 Fagrach Amine 00:13:52 7.36 00:08:09 58Garcons moins de 12 ans 80 P4A
108 692 Demonceau Timothée 00:13:59 7.29 00:08:14 59Garcons moins de 12 ans 71 P3B
109 727 Leonard Manon 00:14:05 7.24 00:08:17 48Filles moins de 12 ans 62 P5A
110 786 Malzaire Abdie 00:14:10 7.2 00:08:20 60Garcons moins de 12 ans 53
111 771 Bamboneyeho Sam 00:14:15 7.16 00:08:23 61Garcons moins de 12 ans 44 P3B
112 736 Mahfoud Wissam ranya 00:14:19 7.12 00:08:25 49Filles moins de 12 ans 35 P3A
113 757 Soetens Anaël 00:14:20 7.12 00:08:26 50Filles moins de 12 ans 27 P4D
114 677 Cajot Sorana 00:14:45 6.92 00:08:41 51Filles moins de 12 ans 18 P3A
115 795 Dhiedene Ethan 00:15:29 6.59 00:09:06 62Garcons moins de 12 ans 9
Jogging Charlemagne 2017
Distance : 1.7 kms
115 coureurs